Time;durP1;ratioP1;P1;durP2;ratioP2;P2;SDS_P1;SDS_P2;PMS_P1;PMS_P2;Temp;Humidity;BMP_temperature;BMP_pressure;BME280_temperature;BME280_humidity;BME280_pressure;Samples;Min_cycle;Max_cycle;Signal;HPM_P1;HPM_P2
2022/09/02 00:02:21;;;;;;;2.85;0.80;;;;;;;;;;4921311;29;20043;-88
2022/09/02 00:04:46;;;;;;;2.33;0.60;;;;;;;16.29;52.73;68583.69;4931983;29;20038;-88
2022/09/02 00:07:12;;;;;;;1.73;0.52;;;;;;;16.24;53.27;68579.13;4920166;29;20412;-87
2022/09/02 00:09:39;;;;;;;3.47;0.60;;;;;;;;;;4912410;29;20500;-86
2022/09/02 00:12:05;;;;;;;1.70;0.70;;;;;;;16.18;53.58;68572.28;4914974;29;20120;-88
2022/09/02 00:14:35;;;;;;;3.42;0.63;;;;;;;16.13;53.43;68560.63;4914484;29;20056;-88
2022/09/02 00:17:01;;;;;;;1.85;0.60;;;;;;;;;;4912018;29;20052;-87
2022/09/02 00:19:29;;;;;;;1.88;0.80;;;;;;;16.06;53.39;68558.59;4915602;29;20044;-88
2022/09/02 00:21:56;;;;;;;1.73;0.70;;;;;;;16.02;53.58;68556.72;4931807;29;20075;-89
2022/09/02 00:24:23;;;;;;;3.15;0.70;;;;;;;15.97;53.69;68548.91;4922138;29;20048;-87
2022/09/02 00:26:49;;;;;;;1.45;0.60;;;;;;;;;;4914141;29;20522;-90
2022/09/02 00:29:14;;;;;;;2.83;0.50;;;;;;;;;;4911030;29;20048;-86
2022/09/02 00:31:44;;;;;;;1.00;0.45;;;;;;;15.91;53.87;68546.88;4913260;29;20235;-87
2022/09/02 00:34:10;;;;;;;3.28;0.77;;;;;;;15.84;54.28;68534.09;4908545;29;20500;-90
2022/09/02 00:36:35;;;;;;;1.77;0.60;;;;;;;15.83;54.42;68532.97;4915399;29;20082;-88
2022/09/02 00:39:03;;;;;;;1.55;0.70;;;;;;;15.80;54.27;68529.53;4925771;29;20500;-87
2022/09/02 00:41:29;;;;;;;3.25;0.80;;;;;;;15.74;54.25;68522.72;4929430;29;20048;-88
2022/09/02 00:43:56;;;;;;;2.70;0.50;;;;;;;;;;4931222;29;20050;-89
2022/09/02 00:46:25;;;;;;;2.05;0.80;;;;;;;15.71;54.49;68513.94;4915233;29;20050;-86
2022/09/02 00:49:12;;;;;;;1.27;0.60;;;;;;;15.73;54.73;68521.56;4914796;29;20111;-89
2022/09/02 00:51:42;;;;;;;2.08;0.60;;;;;;;15.74;54.52;68522.72;4916039;29;20130;-89
2022/09/02 00:54:10;;;;;;;2.75;0.60;;;;;;;15.76;54.12;68524.97;4931634;29;20043;-86
2022/09/02 00:56:36;;;;;;;1.77;0.70;;;;;;;;;;4909857;29;20060;-85
2022/09/02 00:59:02;;;;;;;1.65;0.40;;;;;;;15.72;54.37;68520.44;4911463;29;20044;-88
2022/09/02 01:01:27;;;;;;;1.30;0.68;;;;;;;15.76;54.45;68520.19;4928433;29;20460;-89
2022/09/02 01:03:53;;;;;;;1.80;0.60;;;;;;;;;;4913021;29;20048;-88
2022/09/02 01:06:26;;;;;;;1.42;0.63;;;;;;;15.81;53.93;68525.31;4912236;29;20059;-87
2022/09/02 01:09:01;;;;;;;3.03;0.90;;;;;;;15.86;53.91;68530.44;4914057;29;20126;-87
2022/09/02 01:11:30;;;;;;;3.17;0.68;;;;;;;;;;4915838;29;20556;-86
2022/09/02 01:13:56;;;;;;;2.50;0.80;;;;;;;;;;4894203;29;20063;-87
2022/09/02 01:16:27;;;;;;;2.27;0.57;;;;;;;;;;4909707;29;20500;-89
2022/09/02 01:18:56;;;;;;;1.85;0.68;;;;;;;15.97;53.08;68548.91;4895108;29;20358;-87
2022/09/02 01:21:23;;;;;;;1.70;0.70;;;;;;;16.00;52.82;68552.34;4915586;29;20055;-87
2022/09/02 01:23:48;;;;;;;2.05;0.60;;;;;;;;;;4913583;29;20473;-86
2022/09/02 01:26:14;;;;;;;2.55;0.70;;;;;;;16.01;53.36;68553.47;4910975;29;20139;-86
2022/09/02 01:28:39;;;;;;;2.05;0.68;;;;;;;16.06;52.62;68563.97;4913903;29;20055;-86
2022/09/02 01:31:06;;;;;;;2.42;0.70;;;;;;;16.07;52.72;68559.19;4910222;29;20530;-86
2022/09/02 01:33:32;;;;;;;4.00;0.77;;;;;;;16.02;52.45;68554.03;4900724;29;20043;-86
2022/09/02 01:35:58;;;;;;;5.03;0.77;;;;;;;16.08;52.46;68563.56;4912649;29;20424;-86
2022/09/02 01:38:24;;;;;;;2.58;0.73;;;;;;;;;;4929215;29;20052;-87
2022/09/02 01:40:51;;;;;;;2.58;0.70;;;;;;;16.04;52.69;68555.75;4923310;29;20103;-87
2022/09/02 01:43:21;;;;;;;2.55;0.80;;;;;;;16.04;52.83;68555.75;4910480;29;20458;-87
2022/09/02 01:45:48;;;;;;;1.05;0.50;;;;;;;16.06;52.75;68558.03;4913187;29;20063;-88
2022/09/02 01:48:13;;;;;;;2.67;0.80;;;;;;;16.05;52.68;68556.88;4925407;29;20048;-87
2022/09/02 01:50:43;;;;;;;1.10;0.47;;;;;;;16.05;52.75;68557.47;4907739;29;20106;-87
2022/09/02 01:53:08;;;;;;;2.95;0.80;;;;;;;;;;4908329;29;20040;-87
2022/09/02 01:55:34;;;;;;;2.72;0.70;;;;;;;16.06;52.62;68550.56;4911337;29;20515;-85
2022/09/02 01:57:59;;;;;;;1.40;0.50;;;;;;;16.09;52.93;68562.03;4925005;29;20040;-90
2022/09/02 02:00:25;;;;;;;1.63;0.70;;;;;;;;;;4928047;29;20047;-86
2022/09/02 02:02:50;;;;;;;3.40;0.90;;;;;;;16.08;52.88;68560.31;4929817;29;20107;-87
2022/09/02 02:05:17;;;;;;;1.27;0.77;;;;;;;16.08;52.09;68560.88;4928899;29;20044;-86
2022/09/02 02:07:42;;;;;;;2.15;0.80;;;;;;;;;;4931075;29;20078;-87
2022/09/02 02:10:09;;;;;;;2.85;0.80;;;;;;;;;;4910014;29;20131;-88
2022/09/02 02:12:35;;;;;;;2.58;0.70;;;;;;;16.15;52.52;68570.97;4933092;29;20406;-88
2022/09/02 02:15:03;;;;;;;2.05;0.85;;;;;;;16.13;52.14;68561.22;4911856;29;20056;-87
2022/09/02 02:17:28;;;;;;;3.63;0.70;;;;;;;16.15;52.16;68568.88;4913968;29;20499;-86
2022/09/02 02:19:54;;;;;;;2.00;0.60;;;;;;;16.15;52.14;68570.97;4929598;29;20063;-86
2022/09/02 02:22:19;;;;;;;1.45;0.63;;;;;;;16.11;52.11;68569.09;4912261;29;20699;-86
2022/09/02 02:24:45;;;;;;;4.75;0.90;;;;;;;16.17;52.08;68565.78;4907541;29;20423;-86
2022/09/02 02:27:11;;;;;;;2.42;0.75;;;;;;;16.16;52.38;68572.13;4911564;29;20112;-87
2022/09/02 02:29:36;;;;;;;3.38;0.75;;;;;;;16.12;52.37;68565.44;4920057;29;20047;-86
2022/09/02 02:32:02;;;;;;;2.40;0.70;;;;;;;16.13;52.60;68561.22;4930287;29;20122;-87
2022/09/02 02:34:27;;;;;;;1.23;0.40;;;;;;;;;;4925191;29;20075;-86
2022/09/02 02:36:53;;;;;;;1.50;0.60;;;;;;;16.14;52.49;68569.81;4912452;29;20047;-87
2022/09/02 02:39:18;;;;;;;1.85;0.65;;;;;;;;;;4926786;29;20050;-88
2022/09/02 02:41:43;;;;;;;3.25;0.75;;;;;;;16.15;52.51;68568.88;4913805;29;20044;-86
2022/09/02 02:44:09;;;;;;;3.15;0.77;;;;;;;;;;4928258;29;20043;-88
2022/09/02 02:46:34;;;;;;;1.58;0.75;;;;;;;16.10;52.35;68563.16;4923795;29;20063;-86
2022/09/02 02:49:00;;;;;;;1.75;0.77;;;;;;;;;;4903776;29;20058;-86
2022/09/02 02:51:26;;;;;;;2.50;0.70;;;;;;;16.17;52.42;68571.16;4911550;29;20040;-86
2022/09/02 02:53:51;;;;;;;1.65;0.60;;;;;;;16.15;52.80;68568.28;4919908;29;20047;-88
2022/09/02 02:56:17;;;;;;;1.65;0.77;;;;;;;;;;4934604;29;20459;-87
2022/09/02 02:58:42;;;;;;;1.55;0.50;;;;;;;;;;4917068;29;20443;-87
2022/09/02 03:01:08;;;;;;;1.70;0.80;;;;;;;16.13;52.38;68568.69;4909869;29;20388;-88
2022/09/02 03:03:33;;;;;;;1.95;0.70;;;;;;;16.15;52.49;68562.94;4907952;29;20040;-88
2022/09/02 03:05:59;;;;;;;1.63;0.63;;;;;;;16.16;52.26;68569.44;4910910;29;20048;-87
2022/09/02 03:08:25;;;;;;;2.88;0.80;;;;;;;16.13;52.45;68568.69;4910204;29;20415;-86
2022/09/02 03:10:54;;;;;;;2.22;0.85;;;;;;;16.12;52.78;68564.88;4911863;29;20044;-86
2022/09/02 03:13:20;;;;;;;;;;;;;;;16.10;52.70;68557.22;4926620;29;20064;-87
2022/09/02 03:15:47;;;;;;;2.15;0.68;;;;;;;15.98;52.91;68550.06;4909157;29;19927;-89
2022/09/02 03:18:12;;;;;;;2.35;0.80;;;;;;;15.96;53.20;68547.78;4906025;29;20131;-88
2022/09/02 03:20:39;;;;;;;2.25;0.80;;;;;;;;;;4923148;29;20135;-88
2022/09/02 03:23:04;;;;;;;4.35;0.68;;;;;;;;;;4900841;29;20492;-89
2022/09/02 03:25:30;;;;;;;2.63;0.60;;;;;;;15.92;53.60;68542.66;4916374;29;20054;-87
2022/09/02 03:27:56;;;;;;;3.20;0.88;;;;;;;15.91;53.69;68536.72;4932773;29;20131;-87
2022/09/02 03:30:24;;;;;;;2.95;0.85;;;;;;;15.88;53.56;68538.09;4933165;29;20126;-84
2022/09/02 03:32:51;;;;;;;1.73;0.80;;;;;;;15.89;53.57;68539.81;4915194;29;20491;-86
2022/09/02 03:35:19;;;;;;;2.72;0.90;;;;;;;15.84;53.75;68539.47;4930686;29;20414;-87
2022/09/02 03:37:45;;;;;;;2.30;0.70;;;;;;;15.82;54.04;68531.81;4903409;29;20047;-86
2022/09/02 03:40:14;;;;;;;4.15;0.80;;;;;;;15.82;54.19;68531.81;4908030;29;20531;-87
2022/09/02 03:42:40;;;;;;;1.83;0.82;;;;;;;15.80;54.11;68529.53;4921421;29;20068;-88
2022/09/02 03:45:07;;;;;;;1.50;0.70;;;;;;;15.78;54.20;68522.47;4926466;29;20033;-90
2022/09/02 03:47:32;;;;;;;1.92;0.85;;;;;;;15.75;54.32;68523.84;4940882;29;20032;-90
2022/09/02 03:49:58;;;;;;;2.10;0.70;;;;;;;15.72;54.60;68515.63;4935381;29;20044;-87
2022/09/02 03:52:24;;;;;;;2.63;1.00;;;;;;;;;;4919266;29;20050;-86
2022/09/02 03:54:49;;;;;;;3.80;1.08;;;;;;;15.63;54.58;68510.72;4912725;29;20052;-85
2022/09/02 03:57:15;;;;;;;2.97;0.85;;;;;;;15.67;54.76;68515.28;4910232;29;20048;-86
2022/09/02 03:59:40;;;;;;;1.90;0.88;;;;;;;;;;4902955;29;20334;-85
2022/09/02 04:02:05;;;;;;;2.30;0.70;;;;;;;15.63;54.98;68510.16;4905903;29;20040;-85
2022/09/02 04:04:31;;;;;;;2.42;0.90;;;;;;;15.63;55.06;68513.41;4914589;29;20038;-85
2022/09/02 04:06:58;;;;;;;2.92;0.75;;;;;;;15.62;55.15;68509.00;4913771;29;20042;-84
2022/09/02 04:09:24;;;;;;;3.95;0.80;;;;;;;;;;4929051;28;20044;-85
2022/09/02 04:11:49;;;;;;;3.78;0.85;;;;;;;;;;4914458;29;20039;-85
2022/09/02 04:14:15;;;;;;;2.63;0.70;;;;;;;15.54;55.31;68503.16;4914026;29;20048;-86
2022/09/02 04:23:04;;;;;;;2.50;1.05;;;;;;;15.41;56.45;68485.66;4923919;29;20119;-85
2022/09/02 04:25:30;;;;;;;1.58;0.70;;;;;;;15.39;56.27;68483.38;4927193;29;20495;-85
2022/09/02 04:27:56;;;;;;;2.53;0.70;;;;;;;15.40;56.66;68485.09;4929501;29;20397;-86
2022/09/02 04:30:23;;;;;;;4.85;0.95;;;;;;;;;;4911058;29;20064;-85
2022/09/02 04:32:48;;;;;;;4.72;1.25;;;;;;;;;;4898563;29;20290;-85
2022/09/02 04:35:13;;;;;;;10.65;1.17;;;;;;;;;;4908373;29;20050;-85
2022/09/02 04:37:39;;;;;;;2.70;1.02;;;;;;;;;;4910271;29;20072;-85
2022/09/02 04:40:05;;;;;;;1.98;0.90;;;;;;;15.31;56.75;68474.84;4906604;29;20500;-85
2022/09/02 04:42:30;;;;;;;3.42;0.80;;;;;;;15.31;57.07;68475.41;4905628;29;20052;-86
2022/09/02 04:44:56;;;;;;;1.98;0.88;;;;;;;15.30;56.82;68473.69;4907554;29;20115;-86
2022/09/02 04:47:22;;;;;;;2.25;1.00;;;;;;;15.28;57.08;68472.00;4917946;29;20055;-84
2022/09/02 04:49:50;;;;;;;2.35;1.00;;;;;;;15.33;57.27;68477.09;4919067;29;20499;-85
2022/09/02 04:52:15;;;;;;;4.03;1.10;;;;;;;;;;4921907;29;20044;-85
2022/09/02 04:54:41;;;;;;;4.40;1.13;;;;;;;;;;4939678;28;20051;-85
2022/09/02 04:57:06;;;;;;;3.08;1.05;;;;;;;;;;4914065;29;20055;-85
2022/09/02 04:59:35;;;;;;;2.28;0.90;;;;;;;15.29;57.48;68473.13;4915334;29;20058;-85
2022/09/02 05:02:01;;;;;;;2.15;0.88;;;;;;;15.32;57.40;68475.97;4910390;29;20074;-85
2022/09/02 05:04:26;;;;;;;1.92;1.33;;;;;;;15.30;57.70;68474.25;4909330;29;20305;-86
2022/09/02 05:06:53;;;;;;;3.92;0.85;;;;;;;15.31;57.64;68475.41;4914818;29;20081;-86
2022/09/02 05:09:19;;;;;;;3.35;0.70;;;;;;;15.35;57.54;68479.94;4912957;29;20085;-86
2022/09/02 05:11:46;;;;;;;3.25;0.80;;;;;;;15.33;57.48;68477.09;4935566;29;20435;-85
2022/09/02 05:14:15;;;;;;;5.75;1.17;;;;;;;15.41;57.52;68491.59;4932138;29;20052;-86
2022/09/02 05:16:41;;;;;;;2.55;0.75;;;;;;;15.43;57.34;68488.50;4915296;29;20036;-84
2022/09/02 05:19:10;;;;;;;1.83;0.80;;;;;;;15.41;57.43;68486.22;4925247;29;20131;-85
2022/09/02 05:22:03;;;;;;;1.92;0.60;;;;;;;15.47;57.43;68492.47;4936117;29;20051;-84
2022/09/02 05:24:34;;;;;;;3.72;0.88;;;;;;;15.47;57.59;68495.16;4891780;29;20044;-84
2022/09/02 05:27:00;;;;;;;1.48;0.80;;;;;;;15.51;57.41;68492.25;4893943;29;20087;-84
2022/09/02 05:29:25;;;;;;;4.55;1.10;;;;;;;;;;4890230;29;20048;-84
2022/09/02 05:31:51;;;;;;;2.15;0.90;;;;;;;15.58;57.29;68508.28;4910888;29;20044;-84
2022/09/02 05:34:17;;;;;;;1.30;0.90;;;;;;;15.60;57.22;68501.94;4910221;29;20060;-84
2022/09/02 05:36:42;;;;;;;4.50;0.80;;;;;;;;;;4910539;29;20573;-84
2022/09/02 05:39:08;;;;;;;3.00;0.82;;;;;;;15.65;57.09;68515.69;4910617;29;20048;-82
2022/09/02 05:41:34;;;;;;;2.72;0.90;;;;;;;;;;4910980;29;20538;-85
2022/09/02 05:44:14;;;;;;;3.13;0.90;;;;;;;;;;4910592;29;20032;-85
2022/09/02 05:46:43;;;;;;;2.67;0.95;;;;;;;15.72;57.32;68520.44;4878453;29;20046;-85
2022/09/02 05:49:23;;;;;;;3.88;1.00;;;;;;;15.72;57.14;68520.44;4816323;29;20065;-86
2022/09/02 05:52:01;;;;;;;1.88;0.93;;;;;;;15.73;57.38;68516.19;4836660;29;20037;-86
2022/09/02 05:54:35;;;;;;;5.13;0.95;;;;;;;15.77;57.64;68532.06;4840168;29;20444;-87
2022/09/02 05:57:17;;;;;;;2.10;0.77;;;;;;;15.79;57.37;68528.97;4834015;29;20189;-87
2022/09/02 05:59:54;;;;;;;2.45;0.95;;;;;;;15.81;57.70;68525.31;4832143;29;20129;-85
2022/09/02 06:02:25;;;;;;;3.40;1.00;;;;;;;;;;4833371;29;20054;-87
2022/09/02 06:04:52;;;;;;;3.83;0.90;;;;;;;;;;4825459;29;20050;-86
2022/09/02 06:07:35;;;;;;;6.18;1.00;;;;;;;15.94;57.51;68544.91;4826147;29;20133;-86
2022/09/02 06:10:09;;;;;;;2.28;0.90;;;;;;;15.96;57.51;68547.78;4820600;29;20045;-86
2022/09/02 06:12:37;;;;;;;3.40;0.90;;;;;;;;;;4811933;29;20075;-86
2022/09/02 06:15:05;;;;;;;3.90;0.98;;;;;;;;;;4816226;29;20501;-87
2022/09/02 06:17:42;;;;;;;3.83;1.00;;;;;;;16.08;57.29;68560.88;4776463;29;20063;-87
2022/09/02 06:20:08;;;;;;;3.25;1.15;;;;;;;16.12;57.70;68565.44;4767473;29;20062;-87
2022/09/02 06:22:42;;;;;;;5.55;0.90;;;;;;;16.18;56.95;68571.72;4802514;29;20429;-87
2022/09/02 06:25:16;;;;;;;6.53;0.90;;;;;;;16.22;57.25;68576.25;4807379;29;20069;-87
2022/09/02 06:27:44;;;;;;;2.05;0.90;;;;;;;16.30;56.84;68585.38;4839414;29;20065;-87
2022/09/02 06:30:15;;;;;;;4.82;1.27;;;;;;;16.34;57.01;68595.34;4846636;29;20547;-86
2022/09/02 06:32:41;;;;;;;3.45;1.20;;;;;;;16.41;56.68;68597.38;4852686;29;20576;-87
2022/09/02 06:35:08;;;;;;;2.33;1.08;;;;;;;16.43;56.64;68594.84;4875331;29;20048;-86
2022/09/02 06:37:37;;;;;;;5.95;0.90;;;;;;;16.50;57.02;68601.69;4889918;29;20420;-87
2022/09/02 06:40:10;;;;;;;2.87;0.90;;;;;;;16.55;56.30;68613.31;4911259;29;20051;-86
2022/09/02 06:42:35;;;;;;;2.22;1.00;;;;;;;;;;4919570;29;20084;-86
2022/09/02 06:45:02;;;;;;;4.18;1.00;;;;;;;16.69;56.29;68629.28;4913607;29;20039;-87
2022/09/02 06:47:28;;;;;;;5.95;1.20;;;;;;;;;;4914940;29;20486;-87
2022/09/02 06:49:56;;;;;;;2.50;1.05;;;;;;;;;;4910668;29;20055;-86
2022/09/02 06:52:21;;;;;;;2.72;0.98;;;;;;;;;;4914679;29;20463;-87
2022/09/02 06:54:48;;;;;;;5.53;1.08;;;;;;;;;;4908856;29;20051;-86
2022/09/02 06:57:23;;;;;;;2.42;0.88;;;;;;;;;;4893921;29;20043;-86
2022/09/02 06:59:51;;;;;;;2.90;1.17;;;;;;;17.12;55.35;68676.66;4849528;29;20505;-84
2022/09/02 07:02:21;;;;;;;2.55;0.90;;;;;;;17.19;55.28;68684.63;4817233;29;20267;-86
2022/09/02 07:07:36;;;;;;;3.20;1.35;;;;;;;17.34;55.33;68695.78;4830836;29;20057;-84
2022/09/02 07:10:12;;;;;;;5.63;1.00;;;;;;;17.39;55.00;68706.88;4845233;29;20074;-85
2022/09/02 07:12:41;;;;;;;2.90;0.88;;;;;;;17.44;54.56;68706.63;4853566;29;20100;-85
2022/09/02 07:15:10;;;;;;;3.47;1.10;;;;;;;17.52;54.76;68721.13;4815804;29;20046;-85
2022/09/02 07:17:38;;;;;;;1.80;0.90;;;;;;;;;;4809074;29;20506;-85
2022/09/02 07:20:15;;;;;;;2.65;1.00;;;;;;;17.59;53.85;68729.13;4831586;29;20050;-88
2022/09/02 07:22:40;;;;;;;3.03;1.20;;;;;;;17.66;53.97;68736.53;4797163;29;20055;-85
2022/09/02 07:25:09;;;;;;;2.70;1.00;;;;;;;17.72;54.31;68738.59;4843967;29;20509;-86
2022/09/02 07:27:36;;;;;;;3.88;0.88;;;;;;;17.77;54.31;68749.66;4854880;29;20688;-84
2022/09/02 07:30:03;;;;;;;4.57;1.17;;;;;;;17.85;54.07;68752.88;4846321;29;20046;-85
2022/09/02 07:32:36;;;;;;;7.35;1.48;;;;;;;17.96;53.64;68770.25;4824401;29;20045;-86
2022/09/02 07:35:15;;;;;;;7.03;0.90;;;;;;;18.07;53.93;68777.41;4816159;29;20574;-85
2022/09/02 07:37:43;;;;;;;5.65;1.10;;;;;;;18.14;52.45;68790.78;4840277;29;20057;-86
2022/09/02 07:40:13;;;;;;;1.48;0.95;;;;;;;;;;4862125;29;20119;-85
2022/09/02 07:42:40;;;;;;;7.65;1.45;;;;;;;;;;4865693;29;20105;-85
2022/09/02 07:45:07;;;;;;;1.85;1.00;;;;;;;;;;4885870;29;20060;-86
2022/09/02 07:47:45;;;;;;;3.60;1.10;;;;;;;18.39;52.25;68813.38;4890852;29;20671;-85
2022/09/02 07:50:19;;;;;;;2.65;1.17;;;;;;;18.44;51.88;68818.50;4866432;29;20564;-84
2022/09/02 07:52:44;;;;;;;7.57;1.13;;;;;;;18.46;51.75;68828.88;4859902;29;20053;-85
2022/09/02 07:55:10;;;;;;;3.08;0.98;;;;;;;18.55;51.71;68835.88;4842400;29;20064;-85
2022/09/02 07:57:38;;;;;;;6.70;1.30;;;;;;;18.60;51.41;68847.00;4840882;29;20525;-85
2022/09/02 08:00:04;;;;;;;2.72;1.08;;;;;;;;;;4843694;29;20051;-84
2022/09/02 08:02:48;;;;;;;2.97;1.05;;;;;;;18.71;51.83;68854.72;4858950;29;20050;-85
2022/09/02 08:05:19;;;;;;;3.20;1.10;;;;;;;18.84;51.20;68863.06;4840681;29;20052;-86
2022/09/02 08:07:44;;;;;;;4.45;1.08;;;;;;;;;;4850383;29;20076;-83
2022/09/02 08:10:11;;;;;;;1.85;0.88;;;;;;;18.95;51.07;68881.03;4861268;29;20061;-85
2022/09/02 08:12:38;;;;;;;1.85;0.93;;;;;;;;;;4864360;29;20055;-85
2022/09/02 08:15:04;;;;;;;3.90;0.98;;;;;;;;;;4861686;29;20371;-85
2022/09/02 08:17:33;;;;;;;5.25;0.95;;;;;;;19.18;50.72;68906.72;4923978;29;20063;-85
2022/09/02 08:19:59;;;;;;;3.05;0.90;;;;;;;;;;4929343;29;20042;-87
2022/09/02 08:22:25;;;;;;;4.10;1.70;;;;;;;;;;4925106;29;20050;-85
2022/09/02 08:24:56;;;;;;;3.38;1.10;;;;;;;19.36;50.45;68921.31;4906291;29;20082;-85
2022/09/02 08:27:28;;;;;;;3.03;1.10;;;;;;;19.47;50.39;68933.88;4910054;29;20059;-85
2022/09/02 08:29:58;;;;;;;4.25;1.00;;;;;;;19.55;50.11;68942.47;4902851;29;20048;-86
2022/09/02 08:32:24;;;;;;;3.72;1.02;;;;;;;;;;4918559;29;20063;-86
2022/09/02 08:34:55;;;;;;;3.85;0.73;;;;;;;19.92;50.04;68984.19;4913274;29;20043;-86
2022/09/02 08:37:21;;;;;;;4.40;1.15;;;;;;;;;;4922284;29;20035;-85
2022/09/02 08:39:47;;;;;;;4.07;1.05;;;;;;;;;;4876669;29;20040;-86
2022/09/02 08:42:34;;;;;;;3.88;1.00;;;;;;;20.43;48.76;69040.81;4896965;29;20590;-85
2022/09/02 08:45:08;;;;;;;6.05;1.15;;;;;;;;;;4878348;29;20044;-86
2022/09/02 08:47:34;;;;;;;4.35;1.33;;;;;;;;;;4918405;29;20092;-86
2022/09/02 08:50:10;;;;;;;3.70;1.17;;;;;;;20.87;47.70;69090.56;4900609;29;20048;-85
2022/09/02 08:52:39;;;;;;;3.72;1.00;;;;;;;21.11;47.04;69116.88;4892871;29;20126;-86
2022/09/02 08:55:11;;;;;;;3.20;1.00;;;;;;;21.25;46.35;69132.88;4879133;29;20047;-86
2022/09/02 08:57:45;;;;;;;2.78;1.10;;;;;;;21.54;46.03;69165.50;4912053;29;20047;-86
2022/09/02 09:00:15;;;;;;;7.10;1.60;;;;;;;21.76;45.43;69189.56;4917536;29;20079;-87
2022/09/02 09:03:01;;;;;;;2.67;1.20;;;;;;;21.77;44.55;69191.25;4894422;29;20045;-86
2022/09/02 09:05:39;;;;;;;3.20;1.38;;;;;;;22.03;44.45;69225.31;4900052;29;20049;-87
2022/09/02 09:08:53;;;;;;;2.65;1.10;;;;;;;22.33;44.60;69253.09;4866698;29;20068;-86
2022/09/02 09:11:30;;;;;;;5.85;1.50;;;;;;;22.45;44.04;69267.44;4892199;29;20044;-86
2022/09/02 09:14:11;;;;;;;3.10;1.15;;;;;;;22.72;43.00;69297.78;4883043;29;20044;-86
2022/09/02 09:16:53;;;;;;;5.60;1.42;;;;;;;22.70;42.87;69295.50;4846397;29;20156;-86
2022/09/02 09:19:46;;;;;;;3.47;1.45;;;;;;;22.83;42.84;69303.81;4801968;29;20050;-86
2022/09/02 09:22:36;;;;;;;5.25;1.42;;;;;;;22.93;42.18;69320.69;4799860;29;20055;-86
2022/09/02 09:25:01;;;;;;;4.38;1.60;;;;;;;;;;4834032;29;20462;-86
2022/09/02 09:27:27;;;;;;;4.85;1.50;;;;;;;23.10;42.32;69340.19;4818398;29;20041;-86
2022/09/02 09:29:55;;;;;;;4.28;1.48;;;;;;;23.11;41.65;69341.34;4850874;29;20045;-84
2022/09/02 09:32:36;;;;;;;5.18;1.60;;;;;;;23.14;41.87;69342.06;4851473;29;20046;-85
2022/09/02 09:35:18;;;;;;;2.90;1.58;;;;;;;23.27;41.88;69359.06;4842814;29;20054;-85
2022/09/02 09:37:49;;;;;;;4.70;1.45;;;;;;;;;;4843469;29;20073;-85
2022/09/02 09:40:31;;;;;;;2.92;1.40;;;;;;;23.40;41.36;69373.97;4852380;29;20046;-85
2022/09/02 09:42:58;;;;;;;5.07;1.45;;;;;;;;;;4857453;29;20361;-85
2022/09/02 09:45:34;;;;;;;4.03;1.30;;;;;;;23.34;41.43;69364.41;4903969;29;20044;-85
2022/09/02 09:48:37;;;;;;;2.08;1.50;;;;;;;23.35;41.75;69367.69;4890910;29;20059;-85
2022/09/02 09:51:05;;;;;;;3.25;1.38;;;;;;;;;;4924636;29;20047;-85
2022/09/02 09:53:38;;;;;;;4.70;1.63;;;;;;;23.68;40.42;69401.63;4929733;29;20102;-86
2022/09/02 09:56:39;;;;;;;3.72;1.38;;;;;;;23.79;40.47;69416.97;4914423;29;20102;-88
2022/09/02 09:59:17;;;;;;;5.45;1.40;;;;;;;23.74;40.12;69411.84;4909507;29;20044;-87
2022/09/02 10:01:59;;;;;;;3.80;1.40;;;;;;;23.89;40.17;69428.44;4913743;29;20087;-86
2022/09/02 10:04:31;;;;;;;2.75;1.15;;;;;;;24.03;39.65;69449.94;4904067;29;20106;-87
2022/09/02 10:06:59;;;;;;;3.38;1.40;;;;;;;24.21;39.48;69463.97;4926220;29;20415;-87
2022/09/02 10:09:36;;;;;;;2.35;1.55;;;;;;;24.32;39.53;69477.16;4910431;29;20139;-86
2022/09/02 10:12:15;;;;;;;4.53;1.30;;;;;;;24.31;38.79;69476.03;4932070;29;20043;-88
2022/09/02 10:14:49;;;;;;;3.08;1.50;;;;;;;24.36;39.54;69481.19;4907429;29;20123;-86
2022/09/02 10:17:44;;;;;;;3.00;1.38;;;;;;;24.44;38.90;69490.38;4884266;29;20135;-87
2022/09/02 10:20:40;;;;;;;3.90;1.63;;;;;;;24.66;38.95;69511.75;4924383;29;20047;-87
2022/09/02 10:23:37;;;;;;;6.00;1.80;;;;;;;24.92;37.66;69541.00;4907320;29;20059;-86
2022/09/02 10:26:06;;;;;;;3.63;1.60;;;;;;;24.92;37.70;69541.56;4908135;29;20064;-87
2022/09/02 10:29:02;;;;;;;3.00;1.50;;;;;;;25.01;37.62;69553.47;4924883;29;20467;-86
2022/09/02 10:31:49;;;;;;;2.30;1.48;;;;;;;24.98;36.89;69550.59;4925335;29;20047;-87
2022/09/02 10:34:24;;;;;;;2.35;1.40;;;;;;;24.96;37.35;69546.16;4908434;29;20048;-86
2022/09/02 10:37:20;;;;;;;7.05;1.05;;;;;;;25.21;35.94;69576.44;4918884;29;20064;-86
2022/09/02 10:40:09;;;;;;;10.88;2.38;;;;;;;25.12;36.31;69566.66;4919708;29;20048;-86
2022/09/02 10:43:03;;;;;;;5.25;1.20;;;;;;;25.03;36.50;69553.03;4923163;29;20134;-86
2022/09/02 10:45:45;;;;;;;5.63;1.45;;;;;;;25.04;35.92;69556.91;4895952;29;20047;-88
2022/09/02 10:48:47;;;;;;;3.85;1.20;;;;;;;25.16;35.81;69568.53;4900608;29;20410;-87
2022/09/02 10:51:29;;;;;;;4.70;1.20;;;;;;;25.25;35.70;69577.72;4892294;29;20039;-88
2022/09/02 10:54:22;;;;;;;3.70;1.23;;;;;;;25.28;35.43;69581.72;4879924;29;20211;-86
2022/09/02 10:57:01;;;;;;;4.63;1.55;;;;;;;25.22;35.47;69574.84;4905808;23;20087;-86
2022/09/02 10:59:46;;;;;;;2.17;1.08;;;;;;;25.29;35.65;69582.88;4901703;29;20530;-86
2022/09/02 11:02:40;;;;;;;3.70;1.25;;;;;;;25.43;35.29;69598.94;4890651;29;20051;-88
2022/09/02 11:05:33;;;;;;;2.97;1.30;;;;;;;25.49;35.29;69602.53;4872662;29;20042;-88
2022/09/02 11:08:36;;;;;;;6.38;1.13;;;;;;;25.60;33.95;69617.28;4850599;29;20037;-87
2022/09/02 11:11:31;;;;;;;3.80;1.45;;;;;;;25.42;33.08;69599.94;4833961;29;20126;-86
2022/09/02 11:14:25;;;;;;;2.47;1.13;;;;;;;25.29;33.43;69582.28;4843061;29;20045;-87
2022/09/02 11:17:37;;;;;;;2.45;1.25;;;;;;;25.37;32.75;69594.78;4806987;29;20059;-86
2022/09/02 11:20:38;;;;;;;4.57;1.33;;;;;;;25.44;32.28;69602.25;4767883;29;20050;-85
2022/09/02 11:23:35;;;;;;;2.45;1.02;;;;;;;25.47;33.76;69602.97;4790534;29;20046;-85
2022/09/02 11:26:47;;;;;;;2.70;1.20;;;;;;;25.41;33.88;69599.38;4763149;29;20109;-90
2022/09/02 11:29:20;;;;;;;2.75;1.02;;;;;;;25.18;33.22;69567.53;4760491;29;20184;-88
2022/09/02 11:32:26;;;;;;;2.58;1.30;;;;;;;24.99;33.71;69549.59;4773594;29;20141;-86
2022/09/02 11:34:54;;;;;;;6.30;1.50;;;;;;;;;;4761149;29;20046;-88
2022/09/02 11:37:41;;;;;;;3.55;1.13;;;;;;;24.83;34.92;69531.25;4795459;29;20144;-88
2022/09/02 11:40:11;;;;;;;3.67;1.15;;;;;;;;;;4830122;29;20046;-88
2022/09/02 11:43:09;;;;;;;3.38;1.40;;;;;;;25.58;34.55;69612.28;4830975;29;20054;-89
2022/09/02 11:45:59;;;;;;;2.42;1.13;;;;;;;25.60;33.98;69614.56;4822267;29;20066;-87
2022/09/02 11:48:53;;;;;;;3.40;1.30;;;;;;;25.54;33.05;69607.69;4807096;29;20127;-87
2022/09/02 11:51:49;;;;;;;5.00;1.80;;;;;;;25.66;34.02;69624.78;4800088;29;20445;-87
2022/09/02 11:54:22;;;;;;;3.50;1.55;;;;;;;25.77;34.02;69638.97;4825284;29;20039;-87
2022/09/02 11:56:57;;;;;;;3.83;1.40;;;;;;;26.05;34.02;69667.81;4826255;29;20079;-87
2022/09/02 12:00:06;;;;;;;2.58;1.33;;;;;;;26.22;33.61;69684.63;4802692;29;20063;-87
2022/09/02 12:02:46;;;;;;;3.20;1.40;;;;;;;26.02;34.57;69661.66;4808059;29;20061;-88
2022/09/02 12:05:42;;;;;;;1.77;1.40;;;;;;;;;;4843291;29;20033;-87
2022/09/02 12:08:34;;;;;;;3.25;1.45;;;;;;;26.09;33.19;69672.41;4846048;29;20106;-87
2022/09/02 12:11:27;;;;;;;2.63;1.30;;;;;;;26.10;33.85;69673.56;4858964;29;20042;-87
2022/09/02 12:14:27;;;;;;;3.38;1.45;;;;;;;26.48;33.51;69716.63;4830621;29;20131;-87
2022/09/02 12:17:29;;;;;;;4.80;1.40;;;;;;;26.34;33.21;69701.13;4831254;29;20112;-87
2022/09/02 12:20:00;;;;;;;2.42;1.20;;;;;;;26.04;33.75;69667.25;4845220;29;20053;-89
2022/09/02 12:22:37;;;;;;;3.58;1.48;;;;;;;25.78;33.41;69640.09;4855729;29;20090;-87
2022/09/02 12:25:27;;;;;;;3.58;1.40;;;;;;;25.64;34.52;69624.63;4872981;29;20246;-88
2022/09/02 12:28:29;;;;;;;2.88;1.38;;;;;;;25.90;32.18;69650.63;4834011;29;20046;-87
2022/09/02 12:30:54;;;;;;;2.15;1.30;;;;;;;25.79;32.53;69641.25;4854939;29;20460;-87
2022/09/02 12:33:52;;;;;;;2.75;1.50;;;;;;;25.61;32.87;69618.47;4817270;29;20045;-87
2022/09/02 12:36:46;;;;;;;3.03;1.20;;;;;;;25.79;33.37;69639.09;4845381;29;20359;-88
2022/09/02 12:39:26;;;;;;;3.45;1.40;;;;;;;25.72;33.51;69633.22;4840233;29;20089;-88
2022/09/02 12:42:11;;;;;;;2.33;1.10;;;;;;;;;;4829976;29;20050;-88
2022/09/02 12:45:10;;;;;;;4.90;1.38;;;;;;;25.82;33.07;69645.31;4812640;29;20506;-88
2022/09/02 12:48:13;;;;;;;2.60;1.13;;;;;;;25.78;33.11;69637.97;4815403;29;20510;-90
2022/09/02 12:50:59;;;;;;;2.30;1.08;;;;;;;26.29;32.45;69695.38;4818656;29;20511;-88